| time (UTC) | temp F | wind direction | speed MPH | gust MPH | rain 1hr in | rain 24hr in | rain mn in | humidity % | barometer mb |
| 20260503224541 | 80 | 0 | 0.0 | 2.0 | 0.00 | 0.00 | 0.00 | 40 | 1017.8 |
| 20260503223042 | 80 | 0 | 0.0 | 2.0 | 0.00 | 0.00 | 0.00 | 43 | 1017.9 |
| 20260503221559 | 80 | 0 | 0.0 | 2.0 | 0.00 | 0.00 | 0.00 | 38 | 1018.1 |
| 20260503220048 | 80 | 0 | 0.0 | 3.0 | 0.00 | 0.00 | 0.00 | 43 | 1018.3 |
| 20260503214545 | 80 | 0 | 0.0 | 2.0 | 0.00 | 0.00 | 0.00 | 42 | 1018.2 |
| 20260503213048 | 81 | 0 | 0.0 | 0.0 | 0.00 | 0.00 | 0.00 | 37 | 1018.5 |
| 20260503211543 | 82 | 0 | 0.0 | 3.0 | 0.00 | 0.00 | 0.00 | 36 | 1018.9 |
| 20260503210050 | 82 | 236 | 0.0 | 3.0 | 0.00 | 0.00 | 0.00 | 34 | 1019.0 |
| 20260503204614 | 83 | 0 | 0.0 | 0.0 | 0.00 | 0.00 | 0.00 | 36 | 1019.3 |
| 20260503203052 | 83 | 0 | 0.0 | 5.0 | 0.00 | 0.00 | 0.00 | 35 | 1019.5 |
| 20260503201546 | 83 | 0 | 0.0 | 1.0 | 0.00 | 0.00 | 0.00 | 40 | 1019.8 |
| 20260503200044 | 83 | 0 | 0.0 | 1.0 | 0.00 | 0.00 | 0.00 | 38 | 1020.0 |
| 20260503194551 | 82 | 0 | 0.0 | 2.0 | 0.00 | 0.00 | 0.00 | 38 | 1020.2 |
| 20260503193049 | 82 | 0 | 0.0 | 1.0 | 0.00 | 0.00 | 0.00 | 39 | 1020.4 |
| 20260503191606 | 81 | 0 | 0.0 | 2.0 | 0.00 | 0.00 | 0.00 | 40 | 1020.7 |
| 20260503190048 | 81 | 0 | 0.0 | 4.0 | 0.00 | 0.00 | 0.00 | 39 | 1020.9 |
| 20260503184545 | 81 | 0 | 0.0 | 1.0 | 0.00 | 0.00 | 0.00 | 39 | 1021.0 |
| 20260503183045 | 79 | 0 | 0.0 | 4.0 | 0.00 | 0.00 | 0.00 | 44 | 1021.2 |
| 20260503181549 | 80 | 0 | 0.0 | 3.0 | 0.00 | 0.00 | 0.00 | 41 | 1021.6 |
| 20260503180054 | 80 | 0 | 0.0 | 1.0 | 0.00 | 0.00 | 0.00 | 39 | 1021.8 |
| 20260503174553 | 80 | 0 | 0.0 | 3.0 | 0.00 | 0.00 | 0.00 | 43 | 1022.2 |
| 20260503173048 | 79 | 0 | 0.0 | 2.0 | 0.00 | 0.00 | 0.00 | 41 | 1022.5 |
| 20260503171549 | 78 | 115 | 0.0 | 2.0 | 0.00 | 0.00 | 0.00 | 43 | 1022.7 |
| 20260503160105 | 76 | 0 | 0.0 | 2.0 | 0.00 | 0.00 | 0.00 | 51 | 1022.9 |
| 20260503081551 | 55 | 0 | 0.0 | 0.0 | 0.00 | 0.00 | 0.00 | 91 | 1020.7 |
| 20260503071603 | 56 | 0 | 0.0 | 0.0 | 0.00 | 0.00 | 0.00 | 91 | 1020.7 |
| 20260503054606 | 57 | 0 | 0.0 | 0.0 | 0.00 | 0.00 | 0.00 | 91 | 1020.9 |
| 20260503053049 | 57 | 0 | 0.0 | 0.0 | 0.00 | 0.00 | 0.00 | 90 | 1021.0 |
| 20260503051546 | 58 | 0 | 0.0 | 0.0 | 0.00 | 0.00 | 0.00 | 90 | 1020.7 |
| 20260503050047 | 58 | 0 | 0.0 | 0.0 | 0.00 | 0.00 | 0.00 | 90 | 1020.8 |
| 20260503044545 | 58 | 0 | 0.0 | 0.0 | 0.00 | 0.00 | 0.00 | 90 | 1020.7 |
| 20260503043052 | 58 | 0 | 0.0 | 0.0 | 0.00 | 0.00 | 0.00 | 90 | 1020.6 |
| 20260503041544 | 59 | 0 | 0.0 | 0.0 | 0.00 | 0.00 | 0.00 | 89 | 1020.5 |
| 20260503040051 | 59 | 0 | 0.0 | 0.0 | 0.00 | 0.00 | 0.00 | 89 | 1020.6 |
| 20260503034548 | 59 | 0 | 0.0 | 0.0 | 0.00 | 0.00 | 0.00 | 89 | 1020.5 |
| 20260503033044 | 60 | 0 | 0.0 | 0.0 | 0.00 | 0.00 | 0.00 | 88 | 1020.2 |
| 20260503031544 | 61 | 0 | 0.0 | 0.0 | 0.00 | 0.00 | 0.00 | 87 | 1020.0 |
| 20260503030049 | 61 | 0 | 0.0 | 0.0 | 0.00 | 0.00 | 0.00 | 85 | 1020.1 |
| 20260503024540 | 62 | 0 | 0.0 | 0.0 | 0.00 | 0.00 | 0.00 | 85 | 1020.0 |
| 20260503023048 | 62 | 0 | 0.0 | 0.0 | 0.00 | 0.00 | 0.00 | 83 | 1020.0 |
| 20260503021543 | 63 | 0 | 0.0 | 0.0 | 0.00 | 0.00 | 0.00 | 80 | 1019.7 |
| 20260503020045 | 64 | 0 | 0.0 | 0.0 | 0.00 | 0.00 | 0.00 | 79 | 1019.7 |
| 20260503014555 | 65 | 0 | 0.0 | 0.0 | 0.00 | 0.03 | 0.00 | 78 | 1019.4 |
| 20260503013044 | 67 | 0 | 0.0 | 0.0 | 0.00 | 0.03 | 0.00 | 75 | 1019.2 |
| 20260503011552 | 68 | 0 | 0.0 | 0.0 | 0.00 | 0.03 | 0.00 | 72 | 1019.0 |
| 20260503010050 | 69 | 0 | 0.0 | 0.0 | 0.00 | 0.03 | 0.00 | 68 | 1019.1 |
| 20260503004547 | 70 | 0 | 0.0 | 0.0 | 0.00 | 0.09 | 0.00 | 65 | 1018.7 |
| 20260503003046 | 71 | 0 | 0.0 | 0.0 | 0.00 | 0.09 | 0.00 | 65 | 1018.5 |
| 20260503001548 | 72 | 0 | 0.0 | 0.0 | 0.00 | 0.09 | 0.00 | 60 | 1018.5 |
| 20260503000043 | 72 | 0 | 0.0 | 1.0 | 0.00 | 0.09 | 0.00 | 56 | 1018.4 |
| 20260502234550 | 73 | 0 | 0.0 | 2.0 | 0.00 | 0.20 | 0.00 | 59 | 1018.2 |
| 20260502233048 | 74 | 0 | 0.0 | 2.0 | 0.00 | 0.20 | 0.00 | 53 | 1018.2 |
| 20260502231542 | 74 | 0 | 0.0 | 3.0 | 0.00 | 0.20 | 0.00 | 53 | 1018.1 |
| 20260502230046 | 74 | 0 | 0.0 | 0.0 | 0.00 | 0.20 | 0.00 | 51 | 1018.2 |